sensor_id;sensor_type;location;lat;lon;timestamp;P1;durP1;ratioP1;P2;durP2;ratioP2
23624;SDS011;11989;47.872;12.014;2022-07-23T04:43:11;9.05;;;7.00;;
23624;SDS011;11989;47.872;12.014;2022-07-23T04:45:39;9.07;;;6.53;;
23624;SDS011;11989;47.872;12.014;2022-07-23T04:48:06;8.10;;;6.35;;
23624;SDS011;11989;47.872;12.014;2022-07-23T04:50:37;7.07;;;6.10;;
23624;SDS011;11989;47.872;12.014;2022-07-23T04:53:05;7.93;;;6.55;;
23624;SDS011;11989;47.872;12.014;2022-07-23T04:55:32;8.63;;;6.47;;
23624;SDS011;11989;47.872;12.014;2022-07-23T04:57:59;7.70;;;6.10;;
23624;SDS011;11989;47.872;12.014;2022-07-23T05:00:26;8.65;;;7.10;;
23624;SDS011;11989;47.872;12.014;2022-07-23T05:02:56;8.80;;;7.15;;
23624;SDS011;11989;47.872;12.014;2022-07-23T05:05:23;8.20;;;6.72;;
23624;SDS011;11989;47.872;12.014;2022-07-23T05:07:50;12.07;;;7.32;;
23624;SDS011;11989;47.872;12.014;2022-07-23T05:10:17;8.98;;;6.70;;
23624;SDS011;11989;47.872;12.014;2022-07-23T05:12:43;9.45;;;6.97;;
23624;SDS011;11989;47.872;12.014;2022-07-23T05:15:10;8.73;;;7.15;;
23624;SDS011;11989;47.872;12.014;2022-07-23T05:17:36;8.95;;;7.80;;
23624;SDS011;11989;47.872;12.014;2022-07-23T05:20:03;8.88;;;7.25;;
23624;SDS011;11989;47.872;12.014;2022-07-23T05:22:30;8.98;;;7.43;;
23624;SDS011;11989;47.872;12.014;2022-07-23T05:24:59;9.68;;;7.53;;
23624;SDS011;11989;47.872;12.014;2022-07-23T05:27:26;10.85;;;8.15;;
23624;SDS011;11989;47.872;12.014;2022-07-23T05:29:52;11.25;;;7.97;;
23624;SDS011;11989;47.872;12.014;2022-07-23T05:32:20;11.02;;;8.30;;
23624;SDS011;11989;47.872;12.014;2022-07-23T05:34:48;9.18;;;7.45;;
23624;SDS011;11989;47.872;12.014;2022-07-23T05:37:15;10.13;;;8.15;;
23624;SDS011;11989;47.872;12.014;2022-07-23T05:39:43;10.98;;;7.50;;
23624;SDS011;11989;47.872;12.014;2022-07-23T05:42:10;9.40;;;6.90;;
23624;SDS011;11989;47.872;12.014;2022-07-23T05:44:37;9.98;;;7.25;;
23624;SDS011;11989;47.872;12.014;2022-07-23T05:47:04;8.90;;;6.85;;
23624;SDS011;11989;47.872;12.014;2022-07-23T05:49:31;10.27;;;7.68;;
23624;SDS011;11989;47.872;12.014;2022-07-23T05:51:58;9.32;;;6.78;;
23624;SDS011;11989;47.872;12.014;2022-07-23T05:54:25;8.77;;;7.80;;
23624;SDS011;11989;47.872;12.014;2022-07-23T05:56:52;8.85;;;7.65;;
23624;SDS011;11989;47.872;12.014;2022-07-23T05:59:18;9.68;;;7.47;;
23624;SDS011;11989;47.872;12.014;2022-07-23T06:01:46;8.77;;;7.45;;
23624;SDS011;11989;47.872;12.014;2022-07-23T06:04:13;10.15;;;7.45;;
23624;SDS011;11989;47.872;12.014;2022-07-23T06:06:40;12.73;;;7.60;;
23624;SDS011;11989;47.872;12.014;2022-07-23T06:09:08;8.38;;;6.97;;
23624;SDS011;11989;47.872;12.014;2022-07-23T06:11:39;10.65;;;7.82;;
23624;SDS011;11989;47.872;12.014;2022-07-23T06:14:06;9.60;;;7.15;;
23624;SDS011;11989;47.872;12.014;2022-07-23T06:16:32;9.13;;;7.38;;
23624;SDS011;11989;47.872;12.014;2022-07-23T06:19:00;8.40;;;7.53;;
23624;SDS011;11989;47.872;12.014;2022-07-23T06:21:27;8.70;;;7.60;;
23624;SDS011;11989;47.872;12.014;2022-07-23T06:23:56;9.13;;;7.10;;
23624;SDS011;11989;47.872;12.014;2022-07-23T06:26:23;10.57;;;8.35;;
23624;SDS011;11989;47.872;12.014;2022-07-23T06:28:49;10.13;;;7.82;;
23624;SDS011;11989;47.872;12.014;2022-07-23T06:31:16;8.35;;;7.15;;
23624;SDS011;11989;47.872;12.014;2022-07-23T06:33:43;9.80;;;7.32;;
23624;SDS011;11989;47.872;12.014;2022-07-23T06:36:10;9.82;;;7.90;;
23624;SDS011;11989;47.872;12.014;2022-07-23T06:38:37;10.68;;;8.20;;
23624;SDS011;11989;47.872;12.014;2022-07-23T06:41:04;8.90;;;7.85;;
23624;SDS011;11989;47.872;12.014;2022-07-23T06:43:33;10.93;;;7.43;;
23624;SDS011;11989;47.872;12.014;2022-07-23T06:46:02;9.55;;;7.75;;
23624;SDS011;11989;47.872;12.014;2022-07-23T06:48:30;9.57;;;8.57;;
23624;SDS011;11989;47.872;12.014;2022-07-23T06:51:02;10.82;;;8.48;;
23624;SDS011;11989;47.872;12.014;2022-07-23T06:53:31;10.32;;;9.25;;
23624;SDS011;11989;47.872;12.014;2022-07-23T06:56:02;10.68;;;8.75;;
23624;SDS011;11989;47.872;12.014;2022-07-23T06:58:31;9.02;;;8.00;;
23624;SDS011;11989;47.872;12.014;2022-07-23T07:00:59;11.23;;;8.02;;
23624;SDS011;11989;47.872;12.014;2022-07-23T07:03:27;8.60;;;6.97;;
23624;SDS011;11989;47.872;12.014;2022-07-23T07:05:54;10.80;;;7.38;;
23624;SDS011;11989;47.872;12.014;2022-07-23T07:08:23;9.80;;;7.22;;
23624;SDS011;11989;47.872;12.014;2022-07-23T07:10:50;8.05;;;7.18;;
23624;SDS011;11989;47.872;12.014;2022-07-23T07:13:17;9.85;;;7.60;;
23624;SDS011;11989;47.872;12.014;2022-07-23T07:15:43;9.18;;;7.50;;
23624;SDS011;11989;47.872;12.014;2022-07-23T07:18:10;10.27;;;7.90;;
23624;SDS011;11989;47.872;12.014;2022-07-23T07:20:37;9.05;;;6.82;;
23624;SDS011;11989;47.872;12.014;2022-07-23T07:23:03;8.95;;;6.78;;
23624;SDS011;11989;47.872;12.014;2022-07-23T07:25:32;10.50;;;7.43;;
23624;SDS011;11989;47.872;12.014;2022-07-23T07:27:59;8.07;;;7.25;;
23624;SDS011;11989;47.872;12.014;2022-07-23T07:30:26;7.70;;;6.78;;
23624;SDS011;11989;47.872;12.014;2022-07-23T07:32:55;8.38;;;6.95;;
23624;SDS011;11989;47.872;12.014;2022-07-23T07:35:23;9.32;;;7.60;;
23624;SDS011;11989;47.872;12.014;2022-07-23T07:37:50;8.25;;;6.43;;
23624;SDS011;11989;47.872;12.014;2022-07-23T07:40:18;8.30;;;7.00;;
23624;SDS011;11989;47.872;12.014;2022-07-23T07:42:46;10.25;;;7.38;;
23624;SDS011;11989;47.872;12.014;2022-07-23T07:45:14;7.65;;;6.85;;
23624;SDS011;11989;47.872;12.014;2022-07-23T07:47:42;8.60;;;6.63;;
23624;SDS011;11989;47.872;12.014;2022-07-23T07:50:10;7.68;;;6.20;;
23624;SDS011;11989;47.872;12.014;2022-07-23T07:52:37;7.55;;;6.72;;
23624;SDS011;11989;47.872;12.014;2022-07-23T07:55:04;8.05;;;6.85;;
23624;SDS011;11989;47.872;12.014;2022-07-23T07:57:31;9.00;;;7.35;;
23624;SDS011;11989;47.872;12.014;2022-07-23T08:00:00;9.38;;;7.22;;
23624;SDS011;11989;47.872;12.014;2022-07-23T08:02:27;9.07;;;7.18;;
23624;SDS011;11989;47.872;12.014;2022-07-23T08:04:55;9.48;;;7.75;;
23624;SDS011;11989;47.872;12.014;2022-07-23T08:07:22;9.02;;;7.55;;
23624;SDS011;11989;47.872;12.014;2022-07-23T08:09:50;7.93;;;7.07;;
23624;SDS011;11989;47.872;12.014;2022-07-23T08:12:17;9.30;;;6.72;;
23624;SDS011;11989;47.872;12.014;2022-07-23T08:14:44;8.45;;;6.63;;
23624;SDS011;11989;47.872;12.014;2022-07-23T08:17:10;8.27;;;6.53;;
23624;SDS011;11989;47.872;12.014;2022-07-23T08:19:37;8.43;;;7.53;;
